sensor_id;sensor_type;location;lat;lon;timestamp;temperature;humidity
41592;DHT22;28026;48.562;14.440;2023-04-03T00:00:34;1.40;99.90
41592;DHT22;28026;48.562;14.440;2023-04-03T00:03:05;1.40;99.90
41592;DHT22;28026;48.562;14.440;2023-04-03T00:05:36;1.40;99.90
41592;DHT22;28026;48.562;14.440;2023-04-03T00:08:07;1.40;99.90
41592;DHT22;28026;48.562;14.440;2023-04-03T00:10:39;1.20;99.90
41592;DHT22;28026;48.562;14.440;2023-04-03T00:13:11;1.20;99.90
41592;DHT22;28026;48.562;14.440;2023-04-03T00:15:43;1.20;99.90
41592;DHT22;28026;48.562;14.440;2023-04-03T00:18:14;1.20;99.90
41592;DHT22;28026;48.562;14.440;2023-04-03T00:20:46;1.20;99.90
41592;DHT22;28026;48.562;14.440;2023-04-03T00:23:17;1.20;99.90
41592;DHT22;28026;48.562;14.440;2023-04-03T00:25:49;1.20;99.90
41592;DHT22;28026;48.562;14.440;2023-04-03T00:28:22;1.20;99.90
41592;DHT22;28026;48.562;14.440;2023-04-03T00:30:53;1.30;99.90
41592;DHT22;28026;48.562;14.440;2023-04-03T00:33:24;1.20;99.90
41592;DHT22;28026;48.562;14.440;2023-04-03T00:35:55;1.20;99.90
41592;DHT22;28026;48.562;14.440;2023-04-03T00:38:25;1.20;99.90
41592;DHT22;28026;48.562;14.440;2023-04-03T00:40:56;1.10;99.90
41592;DHT22;28026;48.562;14.440;2023-04-03T00:43:27;1.10;99.90
41592;DHT22;28026;48.562;14.440;2023-04-03T00:45:59;1.20;99.90
41592;DHT22;28026;48.562;14.440;2023-04-03T00:51:23;1.10;99.90
41592;DHT22;28026;48.562;14.440;2023-04-03T00:54:00;1.10;99.90
41592;DHT22;28026;48.562;14.440;2023-04-03T00:56:36;1.10;99.90
41592;DHT22;28026;48.562;14.440;2023-04-03T00:59:13;1.10;99.90
41592;DHT22;28026;48.562;14.440;2023-04-03T01:01:56;1.10;99.90
41592;DHT22;28026;48.562;14.440;2023-04-03T01:07:20;1.10;99.90
41592;DHT22;28026;48.562;14.440;2023-04-03T01:10:04;1.20;99.90
41592;DHT22;28026;48.562;14.440;2023-04-03T01:12:42;1.10;99.90
41592;DHT22;28026;48.562;14.440;2023-04-03T01:15:20;1.00;99.90
41592;DHT22;28026;48.562;14.440;2023-04-03T01:17:57;1.10;99.90
41592;DHT22;28026;48.562;14.440;2023-04-03T01:25:54;1.10;99.90
41592;DHT22;28026;48.562;14.440;2023-04-03T01:28:33;1.10;99.90
41592;DHT22;28026;48.562;14.440;2023-04-03T01:34:13;1.10;99.90
41592;DHT22;28026;48.562;14.440;2023-04-03T01:36:44;1.20;99.90
41592;DHT22;28026;48.562;14.440;2023-04-03T01:39:15;1.20;99.90
41592;DHT22;28026;48.562;14.440;2023-04-03T01:41:46;1.20;99.90
41592;DHT22;28026;48.562;14.440;2023-04-03T01:44:18;1.10;99.90
41592;DHT22;28026;48.562;14.440;2023-04-03T01:46:49;1.10;99.90
41592;DHT22;28026;48.562;14.440;2023-04-03T01:49:19;1.20;99.90
41592;DHT22;28026;48.562;14.440;2023-04-03T01:51:50;1.10;99.90
41592;DHT22;28026;48.562;14.440;2023-04-03T01:54:21;1.10;99.90
41592;DHT22;28026;48.562;14.440;2023-04-03T01:56:52;1.10;99.90
41592;DHT22;28026;48.562;14.440;2023-04-03T01:59:23;1.10;99.90
41592;DHT22;28026;48.562;14.440;2023-04-03T02:01:54;1.10;99.90
41592;DHT22;28026;48.562;14.440;2023-04-03T02:04:25;1.10;99.90
41592;DHT22;28026;48.562;14.440;2023-04-03T02:06:56;1.10;99.90
41592;DHT22;28026;48.562;14.440;2023-04-03T02:09:27;1.10;99.90
41592;DHT22;28026;48.562;14.440;2023-04-03T02:11:58;1.00;99.90
41592;DHT22;28026;48.562;14.440;2023-04-03T02:14:29;1.10;99.90
41592;DHT22;28026;48.562;14.440;2023-04-03T02:17:01;1.20;99.90
41592;DHT22;28026;48.562;14.440;2023-04-03T02:19:38;1.10;99.90
41592;DHT22;28026;48.562;14.440;2023-04-03T02:22:10;1.10;99.90
41592;DHT22;28026;48.562;14.440;2023-04-03T02:24:41;1.10;99.90
41592;DHT22;28026;48.562;14.440;2023-04-03T02:27:12;1.00;99.90
41592;DHT22;28026;48.562;14.440;2023-04-03T02:29:42;1.00;99.90
41592;DHT22;28026;48.562;14.440;2023-04-03T02:32:13;1.00;99.90
41592;DHT22;28026;48.562;14.440;2023-04-03T02:34:44;1.00;99.90
41592;DHT22;28026;48.562;14.440;2023-04-03T02:37:15;1.00;99.90
41592;DHT22;28026;48.562;14.440;2023-04-03T02:39:46;1.00;99.90
41592;DHT22;28026;48.562;14.440;2023-04-03T02:42:17;0.90;99.90
41592;DHT22;28026;48.562;14.440;2023-04-03T02:44:48;0.90;99.90
41592;DHT22;28026;48.562;14.440;2023-04-03T02:47:19;0.80;99.90
41592;DHT22;28026;48.562;14.440;2023-04-03T02:49:50;0.80;99.90
41592;DHT22;28026;48.562;14.440;2023-04-03T02:52:23;0.90;99.90
41592;DHT22;28026;48.562;14.440;2023-04-03T02:54:53;0.90;99.90
41592;DHT22;28026;48.562;14.440;2023-04-03T02:57:24;1.00;99.90
41592;DHT22;28026;48.562;14.440;2023-04-03T02:59:55;1.00;99.90
41592;DHT22;28026;48.562;14.440;2023-04-03T03:02:26;1.00;99.90
41592;DHT22;28026;48.562;14.440;2023-04-03T03:04:57;0.90;99.90
41592;DHT22;28026;48.562;14.440;2023-04-03T03:07:28;0.90;99.90
41592;DHT22;28026;48.562;14.440;2023-04-03T03:09:59;0.90;99.90
41592;DHT22;28026;48.562;14.440;2023-04-03T03:12:30;0.90;99.90
41592;DHT22;28026;48.562;14.440;2023-04-03T03:15:00;1.00;99.90
41592;DHT22;28026;48.562;14.440;2023-04-03T03:17:31;1.00;99.90
41592;DHT22;28026;48.562;14.440;2023-04-03T03:20:04;0.90;99.90
41592;DHT22;28026;48.562;14.440;2023-04-03T03:22:36;0.80;99.90
41592;DHT22;28026;48.562;14.440;2023-04-03T03:25:07;0.80;99.90
41592;DHT22;28026;48.562;14.440;2023-04-03T03:27:39;0.80;99.90
41592;DHT22;28026;48.562;14.440;2023-04-03T03:30:11;0.80;99.90
41592;DHT22;28026;48.562;14.440;2023-04-03T03:32:42;0.80;99.90
41592;DHT22;28026;48.562;14.440;2023-04-03T03:35:13;0.90;99.90
41592;DHT22;28026;48.562;14.440;2023-04-03T03:37:43;0.90;99.90
41592;DHT22;28026;48.562;14.440;2023-04-03T03:40:15;1.00;99.90
41592;DHT22;28026;48.562;14.440;2023-04-03T03:42:46;1.00;99.90
41592;DHT22;28026;48.562;14.440;2023-04-03T03:45:17;1.00;99.90
41592;DHT22;28026;48.562;14.440;2023-04-03T03:47:47;1.00;99.90
41592;DHT22;28026;48.562;14.440;2023-04-03T03:50:18;0.90;99.90
41592;DHT22;28026;48.562;14.440;2023-04-03T03:52:49;1.00;99.90
41592;DHT22;28026;48.562;14.440;2023-04-03T03:55:20;0.90;99.90
41592;DHT22;28026;48.562;14.440;2023-04-03T03:57:52;0.90;99.90
41592;DHT22;28026;48.562;14.440;2023-04-03T04:00:23;0.90;99.90
41592;DHT22;28026;48.562;14.440;2023-04-03T04:02:54;1.00;99.90
41592;DHT22;28026;48.562;14.440;2023-04-03T04:05:26;0.90;99.90
41592;DHT22;28026;48.562;14.440;2023-04-03T04:07:57;1.00;99.90
41592;DHT22;28026;48.562;14.440;2023-04-03T04:10:28;1.00;99.90
41592;DHT22;28026;48.562;14.440;2023-04-03T04:12:59;1.00;99.90
41592;DHT22;28026;48.562;14.440;2023-04-03T04:15:30;0.90;99.90
41592;DHT22;28026;48.562;14.440;2023-04-03T04:18:01;1.00;99.90
41592;DHT22;28026;48.562;14.440;2023-04-03T04:20:32;1.10;99.90
41592;DHT22;28026;48.562;14.440;2023-04-03T04:23:03;1.00;99.90
41592;DHT22;28026;48.562;14.440;2023-04-03T04:25:34;1.00;99.90
41592;DHT22;28026;48.562;14.440;2023-04-03T04:28:05;1.00;99.90
41592;DHT22;28026;48.562;14.440;2023-04-03T04:30:37;0.90;99.90
41592;DHT22;28026;48.562;14.440;2023-04-03T04:33:08;0.90;99.90
41592;DHT22;28026;48.562;14.440;2023-04-03T04:35:42;0.90;99.90
41592;DHT22;28026;48.562;14.440;2023-04-03T04:38:13;1.00;99.90
41592;DHT22;28026;48.562;14.440;2023-04-03T04:40:44;0.90;99.90
41592;DHT22;28026;48.562;14.440;2023-04-03T04:43:16;0.80;99.90
41592;DHT22;28026;48.562;14.440;2023-04-03T04:45:47;0.80;99.90
41592;DHT22;28026;48.562;14.440;2023-04-03T04:48:18;0.90;99.90
41592;DHT22;28026;48.562;14.440;2023-04-03T04:50:49;0.90;99.90
41592;DHT22;28026;48.562;14.440;2023-04-03T04:53:19;0.80;99.90
41592;DHT22;28026;48.562;14.440;2023-04-03T04:55:51;0.80;99.90
41592;DHT22;28026;48.562;14.440;2023-04-03T04:58:23;0.80;99.90
41592;DHT22;28026;48.562;14.440;2023-04-03T05:01:08;0.80;99.90
41592;DHT22;28026;48.562;14.440;2023-04-03T05:03:41;0.80;99.90
41592;DHT22;28026;48.562;14.440;2023-04-03T05:06:12;0.80;99.90
41592;DHT22;28026;48.562;14.440;2023-04-03T05:08:43;0.70;99.90
41592;DHT22;28026;48.562;14.440;2023-04-03T05:11:14;0.80;99.90
41592;DHT22;28026;48.562;14.440;2023-04-03T05:13:44;0.80;99.90
41592;DHT22;28026;48.562;14.440;2023-04-03T05:16:15;0.70;99.90
41592;DHT22;28026;48.562;14.440;2023-04-03T05:18:46;0.80;99.90
41592;DHT22;28026;48.562;14.440;2023-04-03T05:21:17;0.90;99.90
41592;DHT22;28026;48.562;14.440;2023-04-03T05:23:48;0.90;99.90
41592;DHT22;28026;48.562;14.440;2023-04-03T05:26:19;0.90;99.90
41592;DHT22;28026;48.562;14.440;2023-04-03T05:28:51;0.90;99.90
41592;DHT22;28026;48.562;14.440;2023-04-03T05:31:23;1.00;99.90
41592;DHT22;28026;48.562;14.440;2023-04-03T05:33:54;1.00;99.90
41592;DHT22;28026;48.562;14.440;2023-04-03T05:36:25;0.90;99.90
41592;DHT22;28026;48.562;14.440;2023-04-03T05:38:56;0.80;99.90
41592;DHT22;28026;48.562;14.440;2023-04-03T05:41:27;0.70;99.90
41592;DHT22;28026;48.562;14.440;2023-04-03T05:43:58;0.80;99.90
41592;DHT22;28026;48.562;14.440;2023-04-03T05:46:29;0.80;99.90
41592;DHT22;28026;48.562;14.440;2023-04-03T05:49:00;0.80;99.90
41592;DHT22;28026;48.562;14.440;2023-04-03T05:51:35;0.80;99.90
41592;DHT22;28026;48.562;14.440;2023-04-03T05:54:20;0.70;99.90
41592;DHT22;28026;48.562;14.440;2023-04-03T05:56:55;0.70;99.90
41592;DHT22;28026;48.562;14.440;2023-04-03T05:59:26;0.70;99.90
41592;DHT22;28026;48.562;14.440;2023-04-03T06:01:57;0.70;99.90
41592;DHT22;28026;48.562;14.440;2023-04-03T06:04:27;0.80;99.90
41592;DHT22;28026;48.562;14.440;2023-04-03T06:06:58;0.90;99.90
41592;DHT22;28026;48.562;14.440;2023-04-03T06:09:30;0.80;99.90
41592;DHT22;28026;48.562;14.440;2023-04-03T06:12:01;0.70;99.90
41592;DHT22;28026;48.562;14.440;2023-04-03T06:14:32;0.70;99.90
41592;DHT22;28026;48.562;14.440;2023-04-03T06:17:03;0.60;99.90
41592;DHT22;28026;48.562;14.440;2023-04-03T06:19:35;0.70;99.90
41592;DHT22;28026;48.562;14.440;2023-04-03T06:22:06;0.70;99.90
41592;DHT22;28026;48.562;14.440;2023-04-03T06:24:37;0.60;99.90
41592;DHT22;28026;48.562;14.440;2023-04-03T06:27:10;0.60;99.90
41592;DHT22;28026;48.562;14.440;2023-04-03T06:29:41;0.60;99.90
41592;DHT22;28026;48.562;14.440;2023-04-03T06:32:12;0.40;99.90
41592;DHT22;28026;48.562;14.440;2023-04-03T06:34:43;0.30;99.90
41592;DHT22;28026;48.562;14.440;2023-04-03T06:37:17;0.20;99.90
41592;DHT22;28026;48.562;14.440;2023-04-03T06:39:51;0.20;99.90
41592;DHT22;28026;48.562;14.440;2023-04-03T06:42:23;0.20;99.90
41592;DHT22;28026;48.562;14.440;2023-04-03T06:44:54;0.10;99.90
41592;DHT22;28026;48.562;14.440;2023-04-03T06:47:25;-0.10;99.90
41592;DHT22;28026;48.562;14.440;2023-04-03T06:49:56;-0.10;99.90
41592;DHT22;28026;48.562;14.440;2023-04-03T06:52:28;-0.10;99.90
41592;DHT22;28026;48.562;14.440;2023-04-03T06:54:58;0.10;99.90
41592;DHT22;28026;48.562;14.440;2023-04-03T06:57:30;0.20;99.90
41592;DHT22;28026;48.562;14.440;2023-04-03T07:00:01;0.20;99.90
41592;DHT22;28026;48.562;14.440;2023-04-03T07:02:34;0.30;99.90
41592;DHT22;28026;48.562;14.440;2023-04-03T07:05:05;0.30;99.90
41592;DHT22;28026;48.562;14.440;2023-04-03T07:07:37;0.40;99.90
41592;DHT22;28026;48.562;14.440;2023-04-03T07:10:08;0.60;99.90
41592;DHT22;28026;48.562;14.440;2023-04-03T07:12:40;0.70;99.90
41592;DHT22;28026;48.562;14.440;2023-04-03T07:15:11;0.70;99.90
41592;DHT22;28026;48.562;14.440;2023-04-03T07:17:43;0.80;99.90
41592;DHT22;28026;48.562;14.440;2023-04-03T07:20:14;0.80;99.90
41592;DHT22;28026;48.562;14.440;2023-04-03T07:22:45;0.80;99.90
41592;DHT22;28026;48.562;14.440;2023-04-03T07:25:16;0.70;99.90
41592;DHT22;28026;48.562;14.440;2023-04-03T07:27:47;0.60;99.90
41592;DHT22;28026;48.562;14.440;2023-04-03T07:30:19;0.70;99.90
41592;DHT22;28026;48.562;14.440;2023-04-03T07:32:51;0.80;99.90
41592;DHT22;28026;48.562;14.440;2023-04-03T07:35:22;0.80;99.90
41592;DHT22;28026;48.562;14.440;2023-04-03T07:37:53;0.80;99.90
41592;DHT22;28026;48.562;14.440;2023-04-03T07:40:23;0.80;99.90
41592;DHT22;28026;48.562;14.440;2023-04-03T07:42:55;0.90;99.90
41592;DHT22;28026;48.562;14.440;2023-04-03T07:45:27;0.90;99.90
41592;DHT22;28026;48.562;14.440;2023-04-03T07:47:58;0.90;99.90
41592;DHT22;28026;48.562;14.440;2023-04-03T07:50:29;0.80;99.90
41592;DHT22;28026;48.562;14.440;2023-04-03T07:53:03;1.00;99.90
41592;DHT22;28026;48.562;14.440;2023-04-03T07:55:34;1.10;99.90
41592;DHT22;28026;48.562;14.440;2023-04-03T07:58:16;1.30;99.90
41592;DHT22;28026;48.562;14.440;2023-04-03T08:00:49;1.30;99.90
41592;DHT22;28026;48.562;14.440;2023-04-03T08:03:20;1.10;99.90
41592;DHT22;28026;48.562;14.440;2023-04-03T08:05:51;1.20;99.90
41592;DHT22;28026;48.562;14.440;2023-04-03T08:08:23;1.30;99.90
41592;DHT22;28026;48.562;14.440;2023-04-03T08:10:54;1.10;99.90
41592;DHT22;28026;48.562;14.440;2023-04-03T08:13:26;1.20;99.90
41592;DHT22;28026;48.562;14.440;2023-04-03T08:15:57;1.30;99.90
41592;DHT22;28026;48.562;14.440;2023-04-03T08:18:29;1.30;99.90
41592;DHT22;28026;48.562;14.440;2023-04-03T08:21:00;1.20;99.90
41592;DHT22;28026;48.562;14.440;2023-04-03T08:23:31;1.40;99.90
41592;DHT22;28026;48.562;14.440;2023-04-03T08:26:09;1.60;99.90
41592;DHT22;28026;48.562;14.440;2023-04-03T08:28:44;1.50;99.90
41592;DHT22;28026;48.562;14.440;2023-04-03T08:31:17;1.70;99.90
41592;DHT22;28026;48.562;14.440;2023-04-03T08:33:50;2.00;99.90
41592;DHT22;28026;48.562;14.440;2023-04-03T08:36:27;2.20;99.90
41592;DHT22;28026;48.562;14.440;2023-04-03T08:39:00;2.00;99.90
41592;DHT22;28026;48.562;14.440;2023-04-03T08:41:37;2.20;99.90
41592;DHT22;28026;48.562;14.440;2023-04-03T08:44:37;3.10;99.90
41592;DHT22;28026;48.562;14.440;2023-04-03T08:47:57;3.60;99.90
41592;DHT22;28026;48.562;14.440;2023-04-03T08:50:46;4.40;99.90
41592;DHT22;28026;48.562;14.440;2023-04-03T08:53:32;4.60;99.90
41592;DHT22;28026;48.562;14.440;2023-04-03T08:56:10;5.20;99.90
41592;DHT22;28026;48.562;14.440;2023-04-03T08:58:49;5.20;99.90
41592;DHT22;28026;48.562;14.440;2023-04-03T09:01:30;4.30;99.90
41592;DHT22;28026;48.562;14.440;2023-04-03T09:04:13;3.40;99.90
41592;DHT22;28026;48.562;14.440;2023-04-03T09:06:52;3.10;99.90
41592;DHT22;28026;48.562;14.440;2023-04-03T09:09:36;2.80;99.90
41592;DHT22;28026;48.562;14.440;2023-04-03T09:12:23;2.70;99.90
41592;DHT22;28026;48.562;14.440;2023-04-03T09:15:24;2.60;99.90
41592;DHT22;28026;48.562;14.440;2023-04-03T09:18:20;2.80;99.90
41592;DHT22;28026;48.562;14.440;2023-04-03T09:21:35;2.60;99.90
41592;DHT22;28026;48.562;14.440;2023-04-03T09:24:14;3.50;99.90
41592;DHT22;28026;48.562;14.440;2023-04-03T09:27:01;3.70;99.90
41592;DHT22;28026;48.562;14.440;2023-04-03T09:29:41;3.30;99.90
41592;DHT22;28026;48.562;14.440;2023-04-03T09:32:33;2.90;99.90
41592;DHT22;28026;48.562;14.440;2023-04-03T09:35:26;2.50;99.90
41592;DHT22;28026;48.562;14.440;2023-04-03T09:40:45;2.50;99.90
41592;DHT22;28026;48.562;14.440;2023-04-03T09:43:37;2.20;99.90
41592;DHT22;28026;48.562;14.440;2023-04-03T09:46:31;1.90;99.90
41592;DHT22;28026;48.562;14.440;2023-04-03T09:49:05;1.90;99.90
41592;DHT22;28026;48.562;14.440;2023-04-03T09:51:42;1.80;99.90
41592;DHT22;28026;48.562;14.440;2023-04-03T09:54:35;1.70;99.90
41592;DHT22;28026;48.562;14.440;2023-04-03T09:57:12;1.50;99.90
41592;DHT22;28026;48.562;14.440;2023-04-03T09:59:58;1.30;99.90
41592;DHT22;28026;48.562;14.440;2023-04-03T10:02:38;1.50;99.90
41592;DHT22;28026;48.562;14.440;2023-04-03T10:05:32;1.80;99.90
41592;DHT22;28026;48.562;14.440;2023-04-03T10:10:48;1.80;99.90
41592;DHT22;28026;48.562;14.440;2023-04-03T10:13:54;1.80;99.90
41592;DHT22;28026;48.562;14.440;2023-04-03T10:16:35;1.70;99.90
41592;DHT22;28026;48.562;14.440;2023-04-03T10:19:35;1.70;99.90
41592;DHT22;28026;48.562;14.440;2023-04-03T10:22:21;1.60;99.90
41592;DHT22;28026;48.562;14.440;2023-04-03T10:32:09;1.70;99.90
41592;DHT22;28026;48.562;14.440;2023-04-03T10:48:33;2.60;99.90
41592;DHT22;28026;48.562;14.440;2023-04-03T10:57:08;4.30;99.90
41592;DHT22;28026;48.562;14.440;2023-04-03T10:59:45;4.00;99.90
41592;DHT22;28026;48.562;14.440;2023-04-03T11:02:33;3.50;99.90
41592;DHT22;28026;48.562;14.440;2023-04-03T11:05:25;3.10;99.90
41592;DHT22;28026;48.562;14.440;2023-04-03T11:08:28;2.90;99.90
41592;DHT22;28026;48.562;14.440;2023-04-03T11:11:19;2.70;99.90
41592;DHT22;28026;48.562;14.440;2023-04-03T11:14:08;2.80;99.90
41592;DHT22;28026;48.562;14.440;2023-04-03T11:20:03;2.60;99.90
41592;DHT22;28026;48.562;14.440;2023-04-03T11:22:57;4.00;99.90
41592;DHT22;28026;48.562;14.440;2023-04-03T11:25:41;5.20;99.90
41592;DHT22;28026;48.562;14.440;2023-04-03T11:28:15;5.50;99.90
41592;DHT22;28026;48.562;14.440;2023-04-03T11:36:56;5.40;99.90
41592;DHT22;28026;48.562;14.440;2023-04-03T11:39:37;5.60;99.90
41592;DHT22;28026;48.562;14.440;2023-04-03T11:50:48;6.80;99.90
41592;DHT22;28026;48.562;14.440;2023-04-03T12:01:55;5.10;99.90
41592;DHT22;28026;48.562;14.440;2023-04-03T12:04:30;4.90;99.90
41592;DHT22;28026;48.562;14.440;2023-04-03T12:07:17;4.90;99.90
41592;DHT22;28026;48.562;14.440;2023-04-03T12:15:41;6.10;99.90
41592;DHT22;28026;48.562;14.440;2023-04-03T12:18:43;6.90;99.90
41592;DHT22;28026;48.562;14.440;2023-04-03T12:24:32;5.40;99.90
41592;DHT22;28026;48.562;14.440;2023-04-03T12:35:34;6.20;99.90
41592;DHT22;28026;48.562;14.440;2023-04-03T12:44:55;5.20;99.90
41592;DHT22;28026;48.562;14.440;2023-04-03T12:47:35;4.30;99.90
41592;DHT22;28026;48.562;14.440;2023-04-03T12:50:27;3.70;99.90
41592;DHT22;28026;48.562;14.440;2023-04-03T12:53:11;3.40;99.90
41592;DHT22;28026;48.562;14.440;2023-04-03T12:55:57;3.70;99.90
41592;DHT22;28026;48.562;14.440;2023-04-03T12:58:51;4.60;99.90
41592;DHT22;28026;48.562;14.440;2023-04-03T13:01:25;5.30;99.90
41592;DHT22;28026;48.562;14.440;2023-04-03T13:03:57;5.20;99.90
41592;DHT22;28026;48.562;14.440;2023-04-03T13:06:37;6.20;99.90
41592;DHT22;28026;48.562;14.440;2023-04-03T13:09:22;5.60;99.90
41592;DHT22;28026;48.562;14.440;2023-04-03T13:15:21;3.70;99.90
41592;DHT22;28026;48.562;14.440;2023-04-03T13:18:00;3.80;99.90
41592;DHT22;28026;48.562;14.440;2023-04-03T13:20:34;3.80;99.90
41592;DHT22;28026;48.562;14.440;2023-04-03T13:23:08;4.80;99.90
41592;DHT22;28026;48.562;14.440;2023-04-03T13:25:48;5.40;99.90
41592;DHT22;28026;48.562;14.440;2023-04-03T13:28:24;6.00;99.90
41592;DHT22;28026;48.562;14.440;2023-04-03T13:31:00;5.60;99.90
41592;DHT22;28026;48.562;14.440;2023-04-03T13:33:35;4.60;99.90
41592;DHT22;28026;48.562;14.440;2023-04-03T13:36:17;4.30;99.90
41592;DHT22;28026;48.562;14.440;2023-04-03T13:39:02;4.00;99.90
41592;DHT22;28026;48.562;14.440;2023-04-03T13:41:44;3.70;99.90
41592;DHT22;28026;48.562;14.440;2023-04-03T13:47:20;5.10;99.90
41592;DHT22;28026;48.562;14.440;2023-04-03T13:50:01;5.90;99.90
41592;DHT22;28026;48.562;14.440;2023-04-03T13:53:11;6.00;99.90
41592;DHT22;28026;48.562;14.440;2023-04-03T13:56:07;5.50;99.90
41592;DHT22;28026;48.562;14.440;2023-04-03T13:59:03;5.60;99.90
41592;DHT22;28026;48.562;14.440;2023-04-03T14:07:16;5.80;99.90
41592;DHT22;28026;48.562;14.440;2023-04-03T14:09:49;5.10;99.90
41592;DHT22;28026;48.562;14.440;2023-04-03T14:12:31;4.90;99.90
41592;DHT22;28026;48.562;14.440;2023-04-03T14:15:18;4.60;99.90
41592;DHT22;28026;48.562;14.440;2023-04-03T14:17:55;4.40;99.90
41592;DHT22;28026;48.562;14.440;2023-04-03T14:20:27;5.10;99.90
41592;DHT22;28026;48.562;14.440;2023-04-03T14:22:58;5.70;99.90
41592;DHT22;28026;48.562;14.440;2023-04-03T14:25:29;5.50;99.90
41592;DHT22;28026;48.562;14.440;2023-04-03T14:28:01;4.20;99.90
41592;DHT22;28026;48.562;14.440;2023-04-03T14:30:42;3.60;99.90
41592;DHT22;28026;48.562;14.440;2023-04-03T14:33:18;3.30;99.90
41592;DHT22;28026;48.562;14.440;2023-04-03T14:35:51;2.90;99.90
41592;DHT22;28026;48.562;14.440;2023-04-03T14:38:24;2.80;99.90
41592;DHT22;28026;48.562;14.440;2023-04-03T14:40:58;2.90;99.90
41592;DHT22;28026;48.562;14.440;2023-04-03T14:43:29;2.80;99.90
41592;DHT22;28026;48.562;14.440;2023-04-03T14:46:01;2.70;99.90
41592;DHT22;28026;48.562;14.440;2023-04-03T14:48:31;3.10;99.90
41592;DHT22;28026;48.562;14.440;2023-04-03T14:51:02;3.90;99.90
41592;DHT22;28026;48.562;14.440;2023-04-03T14:53:34;4.50;99.90
41592;DHT22;28026;48.562;14.440;2023-04-03T14:56:18;4.20;99.90
41592;DHT22;28026;48.562;14.440;2023-04-03T14:59:00;3.70;99.90
41592;DHT22;28026;48.562;14.440;2023-04-03T15:01:32;3.10;99.90
41592;DHT22;28026;48.562;14.440;2023-04-03T15:04:14;2.40;99.90
41592;DHT22;28026;48.562;14.440;2023-04-03T15:06:48;1.90;99.90
41592;DHT22;28026;48.562;14.440;2023-04-03T15:09:26;1.70;99.90
41592;DHT22;28026;48.562;14.440;2023-04-03T15:11:58;1.70;99.90
41592;DHT22;28026;48.562;14.440;2023-04-03T15:14:29;1.70;99.90
41592;DHT22;28026;48.562;14.440;2023-04-03T15:17:00;1.80;99.90
41592;DHT22;28026;48.562;14.440;2023-04-03T15:19:37;2.00;99.90
41592;DHT22;28026;48.562;14.440;2023-04-03T15:22:15;2.40;99.90
41592;DHT22;28026;48.562;14.440;2023-04-03T15:24:48;2.30;99.90
41592;DHT22;28026;48.562;14.440;2023-04-03T15:27:19;2.10;99.90
41592;DHT22;28026;48.562;14.440;2023-04-03T15:29:50;2.10;99.90
41592;DHT22;28026;48.562;14.440;2023-04-03T15:32:21;2.30;99.90
41592;DHT22;28026;48.562;14.440;2023-04-03T15:34:53;2.40;99.90
41592;DHT22;28026;48.562;14.440;2023-04-03T15:37:25;2.70;99.90
41592;DHT22;28026;48.562;14.440;2023-04-03T15:39:56;2.80;99.90
41592;DHT22;28026;48.562;14.440;2023-04-03T15:42:27;1.90;99.90
41592;DHT22;28026;48.562;14.440;2023-04-03T15:44:58;1.50;99.90
41592;DHT22;28026;48.562;14.440;2023-04-03T15:47:29;1.40;99.90
41592;DHT22;28026;48.562;14.440;2023-04-03T15:50:00;1.50;99.90
41592;DHT22;28026;48.562;14.440;2023-04-03T15:52:31;1.50;99.90
41592;DHT22;28026;48.562;14.440;2023-04-03T15:55:02;1.40;99.90
41592;DHT22;28026;48.562;14.440;2023-04-03T15:57:34;1.60;99.90
41592;DHT22;28026;48.562;14.440;2023-04-03T16:00:06;1.70;99.90
41592;DHT22;28026;48.562;14.440;2023-04-03T16:02:38;2.30;99.90
41592;DHT22;28026;48.562;14.440;2023-04-03T16:05:10;2.70;99.90
41592;DHT22;28026;48.562;14.440;2023-04-03T16:07:43;3.10;99.90
41592;DHT22;28026;48.562;14.440;2023-04-03T16:10:18;3.30;99.90
41592;DHT22;28026;48.562;14.440;2023-04-03T16:12:49;3.60;99.90
41592;DHT22;28026;48.562;14.440;2023-04-03T16:15:19;3.50;99.90
41592;DHT22;28026;48.562;14.440;2023-04-03T16:17:51;3.20;99.90
41592;DHT22;28026;48.562;14.440;2023-04-03T16:20:24;2.90;99.90
41592;DHT22;28026;48.562;14.440;2023-04-03T16:22:59;2.30;99.90
41592;DHT22;28026;48.562;14.440;2023-04-03T16:25:31;2.10;99.90
41592;DHT22;28026;48.562;14.440;2023-04-03T16:28:02;1.80;99.90
41592;DHT22;28026;48.562;14.440;2023-04-03T16:30:33;1.80;99.90
41592;DHT22;28026;48.562;14.440;2023-04-03T16:33:04;1.80;99.90
41592;DHT22;28026;48.562;14.440;2023-04-03T16:35:36;2.00;99.90
41592;DHT22;28026;48.562;14.440;2023-04-03T16:38:08;2.30;99.90
41592;DHT22;28026;48.562;14.440;2023-04-03T16:40:38;2.40;99.90
41592;DHT22;28026;48.562;14.440;2023-04-03T16:43:10;2.30;99.90
41592;DHT22;28026;48.562;14.440;2023-04-03T16:45:41;2.30;99.90
41592;DHT22;28026;48.562;14.440;2023-04-03T16:48:12;2.20;99.90
41592;DHT22;28026;48.562;14.440;2023-04-03T16:50:48;2.10;99.90
41592;DHT22;28026;48.562;14.440;2023-04-03T16:53:24;1.70;99.90
41592;DHT22;28026;48.562;14.440;2023-04-03T16:55:58;1.50;99.90
41592;DHT22;28026;48.562;14.440;2023-04-03T16:58:29;1.30;99.90
41592;DHT22;28026;48.562;14.440;2023-04-03T17:01:12;1.20;99.90
41592;DHT22;28026;48.562;14.440;2023-04-03T17:03:47;1.10;99.90
41592;DHT22;28026;48.562;14.440;2023-04-03T17:06:20;1.10;99.90
41592;DHT22;28026;48.562;14.440;2023-04-03T17:08:53;1.20;99.90
41592;DHT22;28026;48.562;14.440;2023-04-03T17:11:24;1.10;99.90
41592;DHT22;28026;48.562;14.440;2023-04-03T17:14:00;1.00;99.90
41592;DHT22;28026;48.562;14.440;2023-04-03T17:16:33;0.90;99.90
41592;DHT22;28026;48.562;14.440;2023-04-03T17:19:07;0.80;99.90
41592;DHT22;28026;48.562;14.440;2023-04-03T17:21:38;0.80;99.90
41592;DHT22;28026;48.562;14.440;2023-04-03T17:24:11;0.80;99.90
41592;DHT22;28026;48.562;14.440;2023-04-03T17:26:44;0.80;99.90
41592;DHT22;28026;48.562;14.440;2023-04-03T17:29:15;0.80;99.90
41592;DHT22;28026;48.562;14.440;2023-04-03T17:31:46;0.80;99.90
41592;DHT22;28026;48.562;14.440;2023-04-03T17:34:17;0.70;99.90
41592;DHT22;28026;48.562;14.440;2023-04-03T17:36:48;0.60;99.90
41592;DHT22;28026;48.562;14.440;2023-04-03T17:39:19;0.50;99.90
41592;DHT22;28026;48.562;14.440;2023-04-03T17:41:50;0.40;99.90
41592;DHT22;28026;48.562;14.440;2023-04-03T17:44:21;0.40;99.90
41592;DHT22;28026;48.562;14.440;2023-04-03T17:46:52;0.30;99.90
41592;DHT22;28026;48.562;14.440;2023-04-03T17:49:23;0.30;99.90
41592;DHT22;28026;48.562;14.440;2023-04-03T17:51:54;0.40;99.90
41592;DHT22;28026;48.562;14.440;2023-04-03T17:54:25;0.50;99.90
41592;DHT22;28026;48.562;14.440;2023-04-03T17:56:56;0.50;99.90
41592;DHT22;28026;48.562;14.440;2023-04-03T17:59:27;0.50;99.90
41592;DHT22;28026;48.562;14.440;2023-04-03T18:01:58;0.40;99.90
41592;DHT22;28026;48.562;14.440;2023-04-03T18:04:29;0.40;99.90
41592;DHT22;28026;48.562;14.440;2023-04-03T18:07:01;0.30;99.90